createdAt,value
2017-11-24T00:00:52.904Z,0.00
2017-11-24T00:01:52.924Z,0.00
2017-11-24T00:02:52.945Z,0.00
2017-11-24T00:03:52.961Z,0.00
2017-11-24T00:04:52.981Z,0.00
2017-11-24T00:05:53.009Z,0.00
2017-11-24T00:06:53.018Z,0.00
2017-11-24T00:07:53.038Z,0.00
2017-11-24T00:08:53.062Z,0.00
2017-11-24T00:09:53.076Z,0.00
2017-11-24T00:10:53.093Z,0.00
2017-11-24T00:11:53.113Z,0.00
2017-11-24T00:12:53.132Z,0.00
2017-11-24T00:13:53.152Z,0.00
2017-11-24T00:14:53.171Z,0.00
2017-11-24T00:15:53.190Z,0.00
2017-11-24T00:16:53.210Z,0.00
2017-11-24T00:17:53.229Z,0.00
2017-11-24T00:18:53.247Z,0.00
2017-11-24T00:19:53.268Z,0.00
2017-11-24T00:20:53.285Z,0.00
2017-11-24T00:21:53.304Z,0.00
2017-11-24T00:22:53.323Z,0.00
2017-11-24T00:23:53.343Z,0.00
2017-11-24T00:24:53.361Z,0.00
2017-11-24T00:25:53.379Z,0.00
2017-11-24T00:26:53.400Z,0.00
2017-11-24T00:27:53.419Z,0.00
2017-11-24T00:28:53.438Z,0.00
2017-11-24T00:29:53.457Z,0.00
2017-11-24T00:30:53.477Z,0.00
2017-11-24T00:31:53.495Z,0.00
2017-11-24T00:32:53.515Z,0.00
2017-11-24T00:33:53.533Z,0.00
2017-11-24T00:34:53.552Z,0.00
2017-11-24T00:35:53.573Z,0.00
2017-11-24T00:36:53.594Z,0.00
2017-11-24T00:37:53.611Z,0.00
2017-11-24T00:38:53.630Z,0.00
2017-11-24T00:39:53.648Z,0.00
2017-11-24T00:40:53.668Z,0.00
2017-11-24T00:41:53.686Z,0.00
2017-11-24T00:42:53.706Z,0.00
2017-11-24T00:43:53.725Z,0.00
2017-11-24T00:44:53.748Z,0.00
2017-11-24T00:45:53.770Z,0.00
2017-11-24T00:46:53.784Z,0.00
2017-11-24T00:47:53.804Z,0.00
2017-11-24T00:48:53.823Z,0.00
2017-11-24T00:49:53.841Z,0.00
2017-11-24T00:50:53.860Z,0.00
2017-11-24T00:51:53.880Z,0.00
2017-11-24T00:52:53.900Z,0.00
2017-11-24T00:53:53.923Z,0.00
2017-11-24T00:54:53.937Z,0.00
2017-11-24T00:55:53.962Z,0.00
2017-11-24T00:56:53.976Z,0.00
2017-11-24T00:57:53.996Z,0.00
2017-11-24T00:58:54.014Z,0.00
2017-11-24T00:59:54.034Z,0.00
2017-11-24T01:00:54.053Z,0.00
2017-11-24T01:01:54.073Z,0.00
2017-11-24T01:02:54.092Z,0.00
2017-11-24T01:03:54.110Z,0.00
2017-11-24T01:04:54.131Z,0.00
2017-11-24T01:05:54.149Z,0.00
2017-11-24T01:06:54.168Z,0.00
2017-11-24T01:07:54.188Z,0.00
2017-11-24T01:08:54.209Z,0.00
2017-11-24T01:09:54.226Z,0.00
2017-11-24T01:10:54.244Z,0.00
2017-11-24T01:11:54.264Z,0.00
2017-11-24T01:12:54.283Z,0.00
2017-11-24T01:13:54.304Z,0.00
2017-11-24T01:14:54.321Z,0.00
2017-11-24T01:15:54.348Z,0.00
2017-11-24T01:16:54.360Z,0.00
2017-11-24T01:17:54.382Z,0.00
2017-11-24T01:18:54.400Z,0.00
2017-11-24T01:19:54.421Z,0.00
2017-11-24T01:20:54.438Z,0.00
2017-11-24T01:21:54.465Z,0.00
2017-11-24T01:22:54.474Z,0.00
2017-11-24T01:23:54.497Z,0.00
2017-11-24T01:24:54.515Z,0.00
2017-11-24T01:25:54.533Z,0.00
2017-11-24T01:26:54.553Z,0.00
2017-11-24T01:27:54.573Z,0.00
2017-11-24T01:28:54.591Z,0.00
2017-11-24T01:29:54.623Z,0.00
2017-11-24T01:30:54.629Z,0.00
2017-11-24T01:31:54.649Z,0.00
2017-11-24T01:32:54.669Z,0.00
2017-11-24T01:33:54.688Z,0.00
2017-11-24T01:34:54.706Z,0.00
2017-11-24T01:35:54.726Z,0.00
2017-11-24T01:36:54.746Z,0.00
2017-11-24T01:37:54.764Z,0.00
2017-11-24T01:38:54.784Z,0.00
2017-11-24T01:39:54.801Z,0.00
2017-11-24T01:40:54.827Z,0.00
2017-11-24T01:41:54.847Z,0.00
2017-11-24T01:42:54.860Z,0.00
2017-11-24T01:43:54.879Z,0.00
2017-11-24T01:44:54.898Z,0.00
2017-11-24T01:45:54.918Z,0.00
2017-11-24T01:46:54.936Z,0.00
2017-11-24T01:47:54.955Z,0.00
2017-11-24T01:48:54.974Z,0.00
2017-11-24T01:49:54.995Z,0.00
2017-11-24T01:50:55.012Z,0.00
2017-11-24T01:51:55.032Z,0.00
2017-11-24T01:52:55.052Z,0.00
2017-11-24T01:53:55.072Z,0.00
2017-11-24T01:54:55.089Z,0.00
2017-11-24T01:55:55.110Z,0.00
2017-11-24T01:56:55.128Z,0.00
2017-11-24T01:57:55.147Z,0.00
2017-11-24T01:58:55.165Z,0.00
2017-11-24T01:59:55.190Z,0.00
2017-11-24T02:00:55.204Z,0.00
2017-11-24T02:01:55.224Z,0.00
2017-11-24T02:02:55.242Z,0.00
2017-11-24T02:03:55.263Z,0.00
2017-11-24T02:04:55.282Z,0.00
2017-11-24T02:05:55.300Z,0.00
2017-11-24T02:06:55.318Z,0.00
2017-11-24T02:07:55.337Z,0.00
2017-11-24T02:08:55.359Z,0.00
2017-11-24T02:09:55.376Z,0.00
2017-11-24T02:10:55.397Z,0.00
2017-11-24T02:11:55.419Z,0.00
2017-11-24T02:12:55.434Z,0.00
2017-11-24T02:13:55.458Z,0.00
2017-11-24T02:14:55.472Z,0.00
2017-11-24T02:15:55.491Z,0.00
2017-11-24T02:16:55.512Z,0.00
2017-11-24T02:17:55.530Z,0.00
2017-11-24T02:18:55.554Z,0.00
2017-11-24T02:19:55.568Z,0.00
2017-11-24T02:20:55.588Z,0.00
2017-11-24T02:21:55.606Z,0.00
2017-11-24T02:22:55.626Z,0.00
2017-11-24T02:23:55.646Z,0.00
2017-11-24T02:24:55.665Z,0.00
2017-11-24T02:25:55.684Z,0.00
2017-11-24T02:26:55.703Z,0.00
2017-11-24T02:27:55.722Z,0.00
2017-11-24T02:28:55.743Z,0.00
2017-11-24T02:29:55.761Z,0.00
2017-11-24T02:30:55.779Z,0.00
2017-11-24T02:31:55.805Z,0.00
2017-11-24T02:32:55.819Z,0.00
2017-11-24T02:33:55.840Z,0.00
2017-11-24T02:34:55.858Z,0.00
2017-11-24T02:35:55.882Z,0.00
2017-11-24T02:36:55.896Z,0.00
2017-11-24T02:37:55.914Z,0.00
2017-11-24T02:38:55.935Z,0.00
2017-11-24T02:39:55.953Z,0.00
2017-11-24T02:40:55.973Z,0.00
2017-11-24T02:41:55.990Z,0.00
2017-11-24T02:42:56.009Z,0.00
2017-11-24T02:43:56.029Z,0.00
2017-11-24T02:44:56.049Z,0.00
2017-11-24T02:45:56.068Z,0.00
2017-11-24T02:46:56.085Z,0.00
2017-11-24T02:47:56.106Z,0.00
2017-11-24T02:48:56.124Z,0.00
2017-11-24T02:49:56.145Z,0.00
2017-11-24T02:50:56.164Z,0.00
2017-11-24T02:51:56.183Z,0.00
2017-11-24T02:52:56.202Z,0.00
2017-11-24T02:53:56.227Z,0.00
2017-11-24T02:54:56.240Z,0.00
2017-11-24T02:55:56.362Z,0.00
2017-11-24T02:56:56.279Z,0.00
2017-11-24T02:57:56.297Z,0.00
2017-11-24T02:58:56.317Z,0.00
2017-11-24T02:59:56.335Z,0.00
2017-11-24T03:00:56.356Z,0.00
2017-11-24T03:01:56.374Z,0.00
2017-11-24T03:02:56.393Z,0.00
2017-11-24T03:03:56.412Z,0.00
2017-11-24T03:04:56.433Z,0.00
2017-11-24T03:05:56.451Z,0.00
2017-11-24T03:06:56.470Z,0.00
2017-11-24T03:07:56.490Z,0.00
2017-11-24T03:08:56.509Z,0.00
2017-11-24T03:09:56.529Z,0.00
2017-11-24T03:10:56.547Z,0.00
2017-11-24T03:11:56.566Z,0.00
2017-11-24T03:12:56.586Z,0.00
2017-11-24T03:13:56.606Z,0.00
2017-11-24T03:14:56.624Z,0.00
2017-11-24T03:15:56.644Z,0.00
2017-11-24T03:16:56.662Z,0.00
2017-11-24T03:17:56.683Z,0.00
2017-11-24T03:18:56.704Z,0.00
2017-11-24T03:19:56.721Z,0.00
2017-11-24T03:20:56.741Z,0.00
2017-11-24T03:21:56.761Z,0.00
2017-11-24T03:22:56.779Z,0.00
2017-11-24T03:23:56.800Z,0.00
2017-11-24T03:24:56.825Z,0.00
2017-11-24T03:25:56.837Z,0.00
2017-11-24T03:26:56.856Z,0.00
2017-11-24T03:27:56.875Z,0.00
2017-11-24T03:28:56.902Z,0.00
2017-11-24T03:29:56.915Z,0.00
2017-11-24T03:30:56.936Z,0.00
2017-11-24T03:31:56.955Z,0.00
2017-11-24T03:32:56.973Z,0.00
2017-11-24T03:33:56.993Z,0.00
2017-11-24T03:34:57.011Z,0.00
2017-11-24T03:35:57.030Z,0.00
2017-11-24T03:36:57.054Z,0.00
2017-11-24T03:37:57.070Z,0.00
2017-11-24T03:38:57.089Z,0.00
2017-11-24T03:39:57.108Z,0.00
2017-11-24T03:40:57.127Z,0.00
2017-11-24T03:41:57.147Z,0.00
2017-11-24T03:42:57.171Z,0.00
2017-11-24T03:43:57.185Z,0.00
2017-11-24T03:44:57.204Z,0.00
2017-11-24T03:45:57.226Z,0.00
2017-11-24T03:46:57.250Z,0.00
2017-11-24T03:47:57.271Z,0.00
2017-11-24T03:48:57.284Z,0.00
2017-11-24T03:49:57.301Z,0.00
2017-11-24T03:50:57.322Z,0.00
2017-11-24T03:51:57.339Z,0.00
2017-11-24T03:52:57.359Z,0.00
2017-11-24T03:53:57.379Z,0.00
2017-11-24T03:54:57.398Z,0.00
2017-11-24T03:55:57.417Z,0.00
2017-11-24T03:56:57.436Z,0.00
2017-11-24T03:57:57.456Z,0.00
2017-11-24T03:58:57.476Z,0.00
2017-11-24T03:59:57.494Z,0.00
2017-11-24T04:00:57.513Z,0.00
2017-11-24T04:01:57.533Z,0.00
2017-11-24T04:02:57.551Z,0.00
2017-11-24T04:03:57.573Z,0.00
2017-11-24T04:04:57.591Z,0.00
2017-11-24T04:05:57.610Z,0.00
2017-11-24T04:06:57.647Z,0.00
2017-11-24T04:07:57.648Z,0.00
2017-11-24T04:08:57.668Z,0.00
2017-11-24T04:09:57.686Z,0.00
2017-11-24T04:10:57.706Z,0.00
2017-11-24T04:11:57.725Z,0.00
2017-11-24T04:12:57.745Z,0.00
2017-11-24T04:13:57.764Z,0.00
2017-11-24T04:14:57.782Z,0.00
2017-11-24T04:15:57.802Z,0.00
2017-11-24T04:16:57.839Z,0.00
2017-11-24T04:17:57.840Z,0.00
2017-11-24T04:18:57.858Z,0.00
2017-11-24T04:19:57.878Z,0.00
2017-11-24T04:20:57.897Z,0.00
2017-11-24T04:21:57.921Z,0.00
2017-11-24T04:22:57.937Z,0.00
2017-11-24T04:23:57.956Z,0.00
2017-11-24T04:24:57.973Z,0.00
2017-11-24T04:25:58.005Z,0.00
2017-11-24T04:26:58.010Z,0.00
2017-11-24T04:27:58.032Z,0.00
2017-11-24T04:28:58.060Z,0.00
2017-11-24T04:29:58.069Z,0.00
2017-11-24T04:30:58.086Z,0.00
2017-11-24T04:31:58.106Z,0.00
2017-11-24T04:32:58.128Z,0.00
2017-11-24T04:33:58.144Z,0.00
2017-11-24T04:34:58.163Z,0.00
2017-11-24T04:35:58.182Z,0.00
2017-11-24T04:36:58.201Z,0.00
2017-11-24T04:37:58.220Z,0.00
2017-11-24T04:38:58.239Z,0.00
2017-11-24T04:39:58.257Z,0.00
2017-11-24T04:40:58.286Z,0.00
2017-11-24T04:41:58.295Z,0.00
2017-11-24T04:42:58.315Z,0.00
2017-11-24T04:43:58.332Z,0.00
2017-11-24T04:44:58.352Z,0.00
2017-11-24T04:45:58.371Z,0.00
2017-11-24T04:46:58.389Z,0.00
2017-11-24T04:47:58.409Z,0.00
2017-11-24T04:48:58.426Z,0.00
2017-11-24T04:49:58.448Z,0.00
2017-11-24T04:50:58.465Z,0.00
2017-11-24T04:51:58.483Z,0.00
2017-11-24T04:52:58.503Z,0.00
2017-11-24T04:53:58.522Z,0.00
2017-11-24T04:54:58.540Z,0.00
2017-11-24T04:55:58.558Z,0.00
2017-11-24T04:56:58.578Z,0.00
2017-11-24T04:57:58.596Z,0.00
2017-11-24T04:58:58.617Z,0.00
2017-11-24T04:59:58.634Z,0.00
2017-11-24T05:00:58.653Z,0.00
2017-11-24T05:01:58.671Z,0.00
2017-11-24T05:02:58.725Z,0.00
2017-11-24T05:03:58.708Z,0.00
2017-11-24T05:04:58.733Z,0.00
2017-11-24T05:05:58.746Z,0.00
2017-11-24T05:06:58.772Z,0.00
2017-11-24T05:07:58.783Z,0.00
2017-11-24T05:08:58.802Z,0.00
2017-11-24T05:09:58.820Z,0.00
2017-11-24T05:10:58.840Z,0.00
2017-11-24T05:11:58.858Z,0.00
2017-11-24T05:12:58.876Z,0.00
2017-11-24T05:13:58.896Z,0.00
2017-11-24T05:14:58.914Z,0.00
2017-11-24T05:15:58.932Z,0.00
2017-11-24T05:16:58.951Z,0.00
2017-11-24T05:17:58.971Z,0.00
2017-11-24T05:18:58.988Z,0.00
2017-11-24T05:19:59.007Z,0.00
2017-11-24T05:20:59.026Z,0.00
2017-11-24T05:21:59.045Z,0.00
2017-11-24T05:22:59.064Z,0.00
2017-11-24T05:23:59.081Z,0.00
2017-11-24T05:24:59.100Z,0.00
2017-11-24T05:25:59.121Z,0.00
2017-11-24T05:26:59.137Z,0.00
2017-11-24T05:27:59.156Z,0.00
2017-11-24T05:28:59.176Z,0.00
2017-11-24T05:29:59.196Z,0.00
2017-11-24T05:30:59.213Z,0.00
2017-11-24T05:31:59.232Z,0.00
2017-11-24T05:32:59.252Z,0.00
2017-11-24T05:33:59.270Z,0.00
2017-11-24T05:34:59.288Z,0.00
2017-11-24T05:35:59.316Z,0.00
2017-11-24T05:36:59.330Z,0.00
2017-11-24T05:37:59.346Z,0.00
2017-11-24T05:38:59.364Z,0.00
2017-11-24T05:39:59.383Z,0.00
2017-11-24T05:40:59.412Z,0.00
2017-11-24T05:41:59.421Z,0.00
2017-11-24T05:42:59.444Z,0.00
2017-11-24T05:43:59.458Z,0.00
2017-11-24T05:44:59.478Z,0.00
2017-11-24T05:45:59.496Z,0.00
2017-11-24T05:46:59.515Z,0.00
2017-11-24T05:47:59.533Z,0.00
2017-11-24T05:48:59.552Z,0.00
2017-11-24T05:49:59.573Z,0.00
2017-11-24T05:50:59.589Z,0.00
2017-11-24T05:51:59.610Z,0.00
2017-11-24T05:52:59.629Z,0.00
2017-11-24T05:53:59.648Z,0.00
2017-11-24T05:54:59.666Z,0.00
2017-11-24T05:55:59.684Z,0.00
2017-11-24T05:56:59.703Z,0.00
2017-11-24T05:57:59.724Z,0.00
2017-11-24T05:58:59.746Z,0.00
2017-11-24T05:59:59.758Z,0.00
2017-11-24T06:00:59.777Z,0.00
2017-11-24T06:01:59.798Z,0.00
2017-11-24T06:02:59.816Z,0.00
2017-11-24T06:03:59.835Z,0.00
2017-11-24T06:04:59.854Z,0.00
2017-11-24T06:05:59.871Z,0.00
2017-11-24T06:06:59.893Z,0.00
2017-11-24T06:07:59.909Z,0.00
2017-11-24T06:08:59.928Z,0.00
2017-11-24T06:09:59.946Z,0.00
2017-11-24T06:10:59.964Z,0.00
2017-11-24T06:11:59.998Z,0.00
2017-11-24T06:13:00.005Z,0.00
2017-11-24T06:14:00.021Z,0.00
2017-11-24T06:15:00.040Z,0.00
2017-11-24T06:16:00.059Z,0.00
2017-11-24T06:17:00.077Z,0.00
2017-11-24T06:18:00.096Z,0.00
2017-11-24T06:19:00.115Z,0.00
2017-11-24T06:20:00.132Z,0.00
2017-11-24T06:21:00.151Z,0.00
2017-11-24T06:22:00.170Z,0.00
2017-11-24T06:23:00.188Z,0.00
2017-11-24T06:24:00.206Z,0.00
2017-11-24T06:25:00.226Z,0.00
2017-11-24T06:26:00.244Z,0.00
2017-11-24T06:27:00.263Z,0.00
2017-11-24T06:28:00.281Z,0.00
2017-11-24T06:29:00.298Z,0.00
2017-11-24T06:30:00.318Z,0.00
2017-11-24T06:31:00.335Z,0.00
2017-11-24T06:32:00.455Z,0.00
2017-11-24T06:33:00.372Z,0.00
2017-11-24T06:34:00.393Z,0.00
2017-11-24T06:35:00.408Z,0.00
2017-11-24T06:36:00.428Z,0.00
2017-11-24T06:37:00.447Z,0.00
2017-11-24T06:38:00.465Z,0.00
2017-11-24T06:39:00.483Z,0.00
2017-11-24T06:40:00.501Z,0.00
2017-11-24T06:41:00.519Z,0.00
2017-11-24T06:42:00.539Z,0.00
2017-11-24T06:43:00.555Z,0.00
2017-11-24T06:44:00.577Z,0.00
2017-11-24T06:45:00.597Z,0.00
2017-11-24T06:46:00.620Z,0.00
2017-11-24T06:47:00.630Z,0.00
2017-11-24T06:48:00.650Z,0.00
2017-11-24T06:49:00.665Z,0.00
2017-11-24T06:50:00.689Z,0.00
2017-11-24T06:51:00.702Z,0.00
2017-11-24T06:52:00.721Z,0.00
2017-11-24T06:53:00.748Z,0.00
2017-11-24T06:54:00.758Z,0.00
2017-11-24T06:55:00.776Z,0.00
2017-11-24T06:56:00.796Z,0.00
2017-11-24T06:57:00.813Z,0.00
2017-11-24T06:58:00.832Z,0.00
2017-11-24T06:59:00.848Z,0.00
2017-11-24T07:00:00.868Z,0.00
2017-11-24T07:01:00.887Z,0.00
2017-11-24T07:02:00.905Z,0.00
2017-11-24T07:03:00.921Z,0.00
2017-11-24T07:04:00.941Z,0.00
2017-11-24T07:05:00.959Z,0.00
2017-11-24T07:06:00.977Z,0.00
2017-11-24T07:07:00.995Z,0.00
2017-11-24T07:08:01.013Z,0.00
2017-11-24T07:09:01.034Z,0.00
2017-11-24T07:10:01.055Z,0.00
2017-11-24T07:11:01.089Z,0.00
2017-11-24T07:12:01.087Z,0.00
2017-11-24T07:13:01.105Z,0.00
2017-11-24T07:14:01.130Z,0.00
2017-11-24T07:15:01.142Z,0.00
2017-11-24T07:16:01.160Z,0.00
2017-11-24T07:17:01.179Z,0.00
2017-11-24T07:18:01.208Z,0.00
2017-11-24T07:19:01.213Z,0.00
2017-11-24T07:20:01.233Z,0.00
2017-11-24T07:21:01.251Z,0.00
2017-11-24T07:22:01.269Z,0.00
2017-11-24T07:23:01.288Z,5.63
2017-11-24T07:24:01.306Z,5.63
2017-11-24T07:25:01.325Z,5.63
2017-11-24T07:26:01.342Z,5.63
2017-11-24T07:27:01.361Z,5.63
2017-11-24T07:28:01.378Z,5.63
2017-11-24T07:29:01.396Z,5.63
2017-11-24T07:30:01.418Z,11.25
2017-11-24T07:31:01.432Z,11.25
2017-11-24T07:32:01.451Z,11.25
2017-11-24T07:33:01.468Z,11.25
2017-11-24T07:34:01.488Z,11.25
2017-11-24T07:35:01.507Z,11.25
2017-11-24T07:36:01.524Z,11.25
2017-11-24T07:37:01.542Z,11.25
2017-11-24T07:38:01.562Z,11.25
2017-11-24T07:39:01.577Z,11.25
2017-11-24T07:40:01.597Z,11.25
2017-11-24T07:41:01.616Z,11.25
2017-11-24T07:42:01.635Z,11.25
2017-11-24T07:43:01.651Z,11.25
2017-11-24T07:44:01.670Z,11.25
2017-11-24T07:45:01.688Z,11.25
2017-11-24T07:46:01.714Z,11.25
2017-11-24T07:47:01.723Z,11.25
2017-11-24T07:48:01.742Z,11.25
2017-11-24T07:49:01.763Z,11.25
2017-11-24T07:50:01.781Z,11.25
2017-11-24T07:51:01.796Z,11.25
2017-11-24T07:52:01.822Z,11.25
2017-11-24T07:53:01.834Z,11.25
2017-11-24T07:54:01.853Z,11.25
2017-11-24T07:55:01.869Z,11.25
2017-11-24T07:56:01.888Z,11.25
2017-11-24T07:57:01.909Z,11.25
2017-11-24T07:58:01.927Z,11.25
2017-11-24T07:59:01.944Z,16.88
2017-11-24T08:00:01.962Z,16.88
2017-11-24T08:01:01.984Z,16.88
2017-11-24T08:02:02.000Z,11.25
2017-11-24T08:03:02.016Z,11.25
2017-11-24T08:04:02.035Z,11.25
2017-11-24T08:05:02.058Z,5.63
2017-11-24T08:06:02.077Z,5.63
2017-11-24T08:07:02.089Z,5.63
2017-11-24T08:08:02.108Z,5.63
2017-11-24T08:09:02.127Z,5.63
2017-11-24T08:10:02.145Z,5.63
2017-11-24T08:11:02.163Z,5.63
2017-11-24T08:12:02.183Z,5.63
2017-11-24T08:13:02.200Z,5.63
2017-11-24T08:14:02.219Z,5.63
2017-11-24T08:15:02.242Z,5.63
2017-11-24T08:16:02.254Z,5.63
2017-11-24T08:17:02.273Z,11.25
2017-11-24T08:18:02.292Z,5.63
2017-11-24T08:19:02.309Z,5.63
2017-11-24T08:20:02.327Z,11.25
2017-11-24T08:21:02.346Z,11.25
2017-11-24T08:22:02.363Z,11.25
2017-11-24T08:23:02.382Z,5.63
2017-11-24T08:24:02.404Z,5.63
2017-11-24T08:25:02.419Z,11.25
2017-11-24T08:26:02.439Z,11.25
2017-11-24T08:27:02.455Z,11.25
2017-11-24T08:28:02.473Z,11.25
2017-11-24T08:29:02.491Z,16.88
2017-11-24T08:30:02.511Z,16.88
2017-11-24T08:31:02.530Z,16.88
2017-11-24T08:32:02.548Z,16.88
2017-11-24T08:33:02.580Z,22.50
2017-11-24T08:34:02.583Z,28.13
2017-11-24T08:35:02.601Z,33.75
2017-11-24T08:36:02.619Z,33.75
2017-11-24T08:37:02.638Z,28.13
2017-11-24T08:38:02.657Z,28.13
2017-11-24T08:39:02.675Z,28.13
2017-11-24T08:40:02.693Z,28.13
2017-11-24T08:41:02.716Z,22.50
2017-11-24T08:42:02.730Z,22.50
2017-11-24T08:43:02.748Z,16.88
2017-11-24T08:44:02.768Z,22.50
2017-11-24T08:45:02.785Z,22.50
2017-11-24T08:46:02.804Z,22.50
2017-11-24T08:47:02.822Z,28.13
2017-11-24T08:48:02.840Z,28.13
2017-11-24T08:49:02.859Z,22.50
2017-11-24T08:50:03.029Z,22.50
2017-11-24T08:51:02.896Z,22.50
2017-11-24T08:52:02.914Z,28.13
2017-11-24T08:53:02.933Z,33.75
2017-11-24T08:54:02.951Z,39.38
2017-11-24T08:55:02.969Z,45.00
2017-11-24T08:56:02.988Z,50.63
2017-11-24T08:57:03.007Z,56.25
2017-11-24T08:58:03.025Z,56.25
2017-11-24T08:59:03.043Z,56.25
2017-11-24T09:00:03.062Z,56.25
2017-11-24T09:01:03.080Z,56.25
2017-11-24T09:02:03.099Z,56.25
2017-11-24T09:03:03.116Z,56.25
2017-11-24T09:04:03.137Z,61.88
2017-11-24T09:05:03.156Z,61.88
2017-11-24T09:06:03.172Z,61.88
2017-11-24T09:07:03.192Z,56.25
2017-11-24T09:08:03.211Z,56.25
2017-11-24T09:09:03.230Z,56.25
2017-11-24T09:10:03.249Z,50.63
2017-11-24T09:11:03.266Z,50.63
2017-11-24T09:12:03.289Z,50.63
2017-11-24T09:13:03.309Z,50.63
2017-11-24T09:14:03.325Z,45.00
2017-11-24T09:15:03.345Z,39.38
2017-11-24T09:16:03.361Z,33.75
2017-11-24T09:17:03.388Z,33.75
2017-11-24T09:18:03.400Z,33.75
2017-11-24T09:19:03.417Z,39.38
2017-11-24T09:20:03.437Z,45.00
2017-11-24T09:21:03.457Z,45.00
2017-11-24T09:22:03.506Z,50.63
2017-11-24T09:23:03.492Z,50.63
2017-11-24T09:24:03.512Z,50.63
2017-11-24T09:25:03.541Z,50.63
2017-11-24T09:26:03.552Z,45.00
2017-11-24T09:27:03.570Z,45.00
2017-11-24T09:28:03.589Z,39.38
2017-11-24T09:29:03.608Z,39.38
2017-11-24T09:30:03.626Z,39.38
2017-11-24T09:31:03.647Z,39.38
2017-11-24T09:32:03.664Z,39.38
2017-11-24T09:33:03.683Z,39.38
2017-11-24T09:34:03.703Z,39.38
2017-11-24T09:35:03.721Z,39.38
2017-11-24T09:36:03.741Z,39.38
2017-11-24T09:37:03.758Z,39.38
2017-11-24T09:38:03.778Z,45.00
2017-11-24T09:39:03.796Z,45.00
2017-11-24T09:40:03.822Z,45.00
2017-11-24T09:41:03.834Z,45.00
2017-11-24T09:42:03.853Z,45.00
2017-11-24T09:43:03.870Z,45.00
2017-11-24T09:44:03.889Z,39.38
2017-11-24T09:45:03.908Z,39.38
2017-11-24T09:46:03.926Z,39.38
2017-11-24T09:47:03.944Z,39.38
2017-11-24T09:48:03.964Z,39.38
2017-11-24T09:49:03.982Z,39.38
2017-11-24T09:50:04.002Z,39.38
2017-11-24T09:51:04.020Z,33.75
2017-11-24T09:52:04.039Z,33.75
2017-11-24T09:53:04.058Z,39.38
2017-11-24T09:54:04.078Z,45.00
2017-11-24T09:55:04.095Z,45.00
2017-11-24T09:56:04.114Z,50.63
2017-11-24T09:57:04.133Z,56.25
2017-11-24T09:58:04.151Z,61.88
2017-11-24T09:59:04.174Z,61.88
2017-11-24T10:00:04.188Z,61.88
2017-11-24T10:01:04.207Z,67.50
2017-11-24T10:02:04.226Z,73.13
2017-11-24T10:04:04.263Z,78.75
2017-11-24T10:05:04.281Z,73.13
2017-11-24T10:06:04.301Z,73.13
2017-11-24T10:07:04.318Z,67.50
2017-11-24T10:08:04.337Z,61.88
2017-11-24T10:09:04.356Z,61.88
2017-11-24T10:10:04.375Z,61.88
2017-11-24T10:11:04.394Z,56.25
2017-11-24T10:12:04.413Z,56.25
2017-11-24T10:13:04.431Z,56.25
2017-11-24T10:14:04.452Z,56.25
2017-11-24T10:15:04.470Z,56.25
2017-11-24T10:16:04.488Z,50.63
2017-11-24T10:17:04.508Z,50.63
2017-11-24T10:18:04.526Z,50.63
2017-11-24T10:19:04.545Z,50.63
2017-11-24T10:20:04.562Z,50.63
2017-11-24T10:21:04.583Z,56.25
2017-11-24T10:22:04.601Z,56.25
2017-11-24T10:23:04.621Z,56.25
2017-11-24T10:24:04.641Z,56.25
2017-11-24T10:25:04.665Z,50.63
2017-11-24T10:26:04.684Z,56.25
2017-11-24T10:27:04.696Z,61.88
2017-11-24T10:28:04.715Z,61.88
2017-11-24T10:29:04.732Z,61.88
2017-11-24T10:30:04.754Z,56.25
2017-11-24T10:31:04.770Z,56.25
2017-11-24T10:32:04.789Z,56.25
2017-11-24T10:33:04.809Z,56.25
2017-11-24T10:34:04.828Z,50.63
2017-11-24T10:35:04.845Z,50.63
2017-11-24T10:36:04.864Z,45.00
2017-11-24T10:37:04.884Z,50.63
2017-11-24T10:38:04.903Z,50.63
2017-11-24T10:39:04.925Z,56.25
2017-11-24T10:40:04.941Z,56.25
2017-11-24T10:41:04.959Z,50.63
2017-11-24T10:42:04.978Z,50.63
2017-11-24T10:43:04.995Z,50.63
2017-11-24T10:44:05.013Z,50.63
2017-11-24T10:45:05.032Z,50.63
2017-11-24T10:46:05.053Z,50.63
2017-11-24T10:47:05.070Z,56.25
2017-11-24T10:48:05.089Z,61.88
2017-11-24T10:49:05.107Z,61.88
2017-11-24T10:50:05.129Z,67.50
2017-11-24T10:51:05.144Z,73.13
2017-11-24T10:52:05.163Z,67.50
2017-11-24T10:53:05.183Z,61.88
2017-11-24T10:54:05.202Z,61.88
2017-11-24T10:55:05.218Z,67.50
2017-11-24T10:56:05.237Z,61.88
2017-11-24T10:57:05.257Z,61.88
2017-11-24T10:58:05.275Z,67.50
2017-11-24T10:59:05.294Z,61.88
2017-11-24T11:00:05.313Z,61.88
2017-11-24T11:01:05.336Z,61.88
2017-11-24T11:02:05.350Z,67.50
2017-11-24T11:03:05.368Z,67.50
2017-11-24T11:04:05.387Z,84.38
2017-11-24T11:05:05.407Z,95.63
2017-11-24T11:06:05.426Z,90.00
2017-11-24T11:07:05.543Z,73.13
2017-11-24T11:08:05.461Z,67.50
2017-11-24T11:09:05.493Z,61.88
2017-11-24T11:10:05.501Z,50.63
2017-11-24T11:11:05.518Z,56.25
2017-11-24T11:12:05.538Z,67.50
2017-11-24T11:13:05.556Z,78.75
2017-11-24T11:14:05.575Z,95.63
2017-11-24T11:15:05.594Z,106.88
2017-11-24T11:16:05.612Z,112.50
2017-11-24T11:17:05.630Z,123.75
2017-11-24T11:18:05.650Z,123.75
2017-11-24T11:19:05.667Z,123.75
2017-11-24T11:20:05.687Z,129.38
2017-11-24T11:21:05.723Z,129.38
2017-11-24T11:22:05.725Z,123.75
2017-11-24T11:23:05.742Z,112.50
2017-11-24T11:24:05.763Z,101.25
2017-11-24T11:25:05.781Z,84.38
2017-11-24T11:26:05.801Z,73.13
2017-11-24T11:27:05.818Z,61.88
2017-11-24T11:28:05.840Z,45.00
2017-11-24T11:29:05.856Z,39.38
2017-11-24T11:30:05.876Z,39.38
2017-11-24T11:31:05.898Z,33.75
2017-11-24T11:32:05.913Z,28.13
2017-11-24T11:33:05.934Z,28.13
2017-11-24T11:34:05.952Z,28.13
2017-11-24T11:35:05.970Z,28.13
2017-11-24T11:36:05.990Z,33.75
2017-11-24T11:37:06.008Z,28.13
2017-11-24T11:38:06.028Z,28.13
2017-11-24T11:39:06.082Z,28.13
2017-11-24T11:40:06.066Z,33.75
2017-11-24T11:41:06.084Z,33.75
2017-11-24T11:42:06.104Z,33.75
2017-11-24T11:43:06.122Z,33.75
2017-11-24T11:44:06.141Z,33.75
2017-11-24T11:45:06.163Z,39.38
2017-11-24T11:46:06.178Z,45.00
2017-11-24T11:47:06.202Z,50.63
2017-11-24T11:48:06.216Z,45.00
2017-11-24T11:49:06.239Z,39.38
2017-11-24T11:50:06.257Z,39.38
2017-11-24T11:51:06.272Z,45.00
2017-11-24T11:52:06.291Z,50.63
2017-11-24T11:53:06.312Z,56.25
2017-11-24T11:54:06.330Z,56.25
2017-11-24T11:55:06.353Z,56.25
2017-11-24T11:56:06.366Z,50.63
2017-11-24T11:57:06.385Z,56.25
2017-11-24T11:58:06.405Z,61.88
2017-11-24T11:59:06.428Z,67.50
2017-11-24T12:00:06.441Z,67.50
2017-11-24T12:01:06.461Z,73.13
2017-11-24T12:02:06.479Z,73.13
2017-11-24T12:03:06.497Z,67.50
2017-11-24T12:04:06.517Z,67.50
2017-11-24T12:05:06.538Z,61.88
2017-11-24T12:06:06.554Z,61.88
2017-11-24T12:07:06.571Z,61.88
2017-11-24T12:08:06.591Z,61.88
2017-11-24T12:09:06.613Z,67.50
2017-11-24T12:10:06.630Z,67.50
2017-11-24T12:11:06.647Z,61.88
2017-11-24T12:12:06.666Z,61.88
2017-11-24T12:13:06.685Z,61.88
2017-11-24T12:14:06.705Z,61.88
2017-11-24T12:15:06.722Z,56.25
2017-11-24T12:16:06.741Z,50.63
2017-11-24T12:17:06.761Z,45.00
2017-11-24T12:18:06.779Z,39.38
2017-11-24T12:19:06.898Z,33.75
2017-11-24T12:20:06.816Z,28.13
2017-11-24T12:21:06.835Z,28.13
2017-11-24T12:22:06.856Z,28.13
2017-11-24T12:23:06.873Z,22.50
2017-11-24T12:24:06.892Z,22.50
2017-11-24T12:25:06.916Z,22.50
2017-11-24T12:26:06.933Z,22.50
2017-11-24T12:27:06.949Z,22.50
2017-11-24T12:28:06.970Z,28.13
2017-11-24T12:29:06.987Z,28.13
2017-11-24T12:30:07.007Z,28.13
2017-11-24T12:31:07.175Z,33.75
2017-11-24T12:32:07.048Z,33.75
2017-11-24T12:33:07.069Z,28.13
2017-11-24T12:34:07.081Z,28.13
2017-11-24T12:35:07.105Z,28.13
2017-11-24T12:36:07.119Z,33.75
2017-11-24T12:37:07.138Z,28.13
2017-11-24T12:38:07.157Z,22.50
2017-11-24T12:39:07.175Z,16.88
2017-11-24T12:40:07.196Z,16.88
2017-11-24T12:41:07.213Z,16.88
2017-11-24T12:42:07.232Z,16.88
2017-11-24T12:43:07.252Z,16.88
2017-11-24T12:44:07.270Z,16.88
2017-11-24T12:45:07.289Z,16.88
2017-11-24T12:46:07.307Z,16.88
2017-11-24T12:47:07.326Z,16.88
2017-11-24T12:48:07.345Z,16.88
2017-11-24T12:49:07.364Z,16.88
2017-11-24T12:50:07.383Z,22.50
2017-11-24T12:51:07.400Z,22.50
2017-11-24T12:52:07.419Z,28.13
2017-11-24T12:53:07.439Z,28.13
2017-11-24T12:54:07.458Z,33.75
2017-11-24T12:55:07.476Z,39.38
2017-11-24T12:56:07.494Z,39.38
2017-11-24T12:57:07.513Z,39.38
2017-11-24T12:58:07.533Z,33.75
2017-11-24T12:59:07.550Z,28.13
2017-11-24T13:00:07.569Z,28.13
2017-11-24T13:01:07.592Z,33.75
2017-11-24T13:02:07.609Z,39.38
2017-11-24T13:03:07.625Z,45.00
2017-11-24T13:04:07.646Z,50.63
2017-11-24T13:05:07.662Z,50.63
2017-11-24T13:06:07.682Z,50.63
2017-11-24T13:07:07.700Z,50.63
2017-11-24T13:08:07.720Z,50.63
2017-11-24T13:09:07.738Z,50.63